Egham, United Kingdom
Current Conditions -  °F | °C
As of 12:20 PM on Thursday 18 Dec 2014 (Local Time) from EGLL Reporting Station
Broken Clouds Broken Clouds  
Wind Chill: 57°   Ceiling: 1900
Heat Index: 57°   Visibility: 6mi
Dew Point: 50°   Wind: 21mph
Humidity: 77%   Direction: 250°WSW
Pressure: 29.83"   Gusts: 35mph
Location:  51.43°N, 0.55°W
Report Text: EGLL 181220Z 25018G30KT 9999 BKN019 14/10 Q1010
Loading
Personal Weather Stations






























Interactive Weather Map New forecast layout! Learn more

10-Day Weather Forecast

Advertisements
Track Severe Weather on mobile